createdAt,value
2023-02-09T05:02:49.526Z,1.00
2023-02-09T05:05:21.178Z,1.00
2023-02-09T05:07:52.832Z,1.00
2023-02-09T05:10:24.515Z,23.20
2023-02-09T05:12:56.176Z,57.20
2023-02-09T05:15:27.844Z,99.90
2023-02-09T05:18:00.843Z,99.90
2023-02-09T05:20:32.499Z,99.90
2023-02-09T05:23:04.252Z,99.90
2023-02-09T05:25:35.918Z,99.90
2023-02-09T05:28:07.665Z,99.90
2023-02-09T05:30:39.463Z,99.90
2023-02-09T05:33:12.495Z,1.00
2023-02-09T05:35:44.140Z,99.90
2023-02-09T05:38:15.790Z,1.00
2023-02-09T05:40:47.833Z,1.00
2023-02-09T05:43:19.659Z,1.00
2023-02-09T05:45:51.346Z,1.00
2023-02-09T05:48:24.384Z,1.00
2023-02-09T05:50:56.026Z,1.00
2023-02-09T05:53:27.683Z,1.00
2023-02-09T05:55:59.360Z,99.90
2023-02-09T05:58:31.038Z,99.90
2023-02-09T06:01:02.695Z,99.90
2023-02-09T06:03:35.745Z,99.90
2023-02-09T06:06:07.727Z,99.90
2023-02-09T06:08:39.409Z,99.90
2023-02-09T06:11:11.077Z,99.90
2023-02-09T06:13:42.770Z,1.00
2023-02-09T06:16:14.433Z,1.00
2023-02-09T06:18:47.436Z,1.00
2023-02-09T06:21:19.088Z,1.00
2023-02-09T06:26:23.229Z,1.00
2023-02-09T06:28:54.874Z,1.00
2023-02-09T06:31:26.684Z,99.90
2023-02-09T06:34:00.005Z,1.00
2023-02-09T06:36:31.840Z,99.90
2023-02-09T06:39:06.478Z,99.90
2023-02-09T06:41:39.126Z,99.90
2023-02-09T06:44:10.914Z,99.90
2023-02-09T06:46:42.630Z,99.90
2023-02-09T06:49:15.692Z,99.90
2023-02-09T06:51:47.607Z,99.90
2023-02-09T06:54:19.250Z,97.60
2023-02-09T06:56:50.932Z,27.00
2023-02-09T06:59:22.751Z,1.00
2023-02-09T07:01:55.219Z,1.00
2023-02-09T07:04:28.287Z,1.00
2023-02-09T07:06:59.968Z,1.00
2023-02-09T07:09:31.633Z,1.00
2023-02-09T07:12:03.496Z,1.00
2023-02-09T07:14:35.212Z,1.00
2023-02-09T07:17:06.870Z,1.00
2023-02-09T07:19:39.852Z,1.00
2023-02-09T07:22:11.514Z,1.00
2023-02-09T07:24:43.161Z,1.00
2023-02-09T07:27:14.835Z,99.90
2023-02-09T07:29:46.490Z,99.90
2023-02-09T07:32:18.166Z,99.90
2023-02-09T07:34:51.166Z,1.00
2023-02-09T07:37:22.824Z,1.00
2023-02-09T07:39:54.580Z,1.00
2023-02-09T07:42:26.365Z,1.00
2023-02-09T07:44:58.032Z,1.00
2023-02-09T07:47:29.678Z,1.00
2023-02-09T07:50:02.688Z,1.00
2023-02-09T07:52:34.358Z,1.00
2023-02-09T07:55:06.924Z,1.00
2023-02-09T07:57:38.585Z,1.00
2023-02-09T08:00:11.450Z,1.00
2023-02-09T08:02:43.368Z,1.00
2023-02-09T08:05:18.752Z,1.00
2023-02-09T08:07:50.459Z,1.00
2023-02-09T08:10:22.154Z,1.00
2023-02-09T08:12:53.930Z,1.00
2023-02-09T08:15:25.922Z,1.00
2023-02-09T08:17:58.348Z,1.00
2023-02-09T08:20:31.428Z,1.00
2023-02-09T08:23:06.155Z,1.00
2023-02-09T08:25:37.869Z,1.00
2023-02-09T08:28:09.574Z,1.00
2023-02-09T08:30:41.303Z,99.90
2023-02-09T08:33:12.978Z,99.90
2023-02-09T08:35:46.550Z,99.90
2023-02-09T08:38:18.469Z,99.90
2023-02-09T08:40:50.126Z,99.90
2023-02-09T08:43:21.771Z,99.90
2023-02-09T08:45:53.495Z,99.90
2023-02-09T08:48:25.150Z,99.90
2023-02-09T08:50:58.147Z,99.90
2023-02-09T08:53:29.804Z,99.90
2023-02-09T08:56:01.479Z,99.90
2023-02-09T08:58:33.127Z,99.90
2023-02-09T09:01:04.996Z,99.90
2023-02-09T09:03:36.739Z,99.90
2023-02-09T09:06:10.278Z,99.90
2023-02-09T09:08:41.978Z,99.90
2023-02-09T09:11:13.675Z,99.90
2023-02-09T09:13:45.327Z,99.90
2023-02-09T09:16:17.618Z,99.90
2023-02-09T09:18:49.344Z,99.90
2023-02-09T09:21:22.356Z,99.90
2023-02-09T09:23:54.025Z,99.90
2023-02-09T09:26:25.683Z,99.90
2023-02-09T09:28:57.333Z,99.90
2023-02-09T09:31:29.103Z,99.90
2023-02-09T09:34:00.791Z,99.90
2023-02-09T09:36:33.791Z,99.90
2023-02-09T09:39:05.432Z,99.90
2023-02-09T09:41:37.288Z,99.90
2023-02-09T09:44:12.802Z,99.90
2023-02-09T09:46:46.277Z,99.90
2023-02-09T09:49:22.975Z,99.90
2023-02-09T09:51:57.644Z,99.90
2023-02-09T09:54:31.198Z,99.90
2023-02-09T09:57:02.904Z,99.90
2023-02-09T09:59:35.247Z,99.90
2023-02-09T10:02:17.295Z,99.90
2023-02-09T10:04:49.070Z,99.90
2023-02-09T10:07:23.697Z,99.90
2023-02-09T10:09:57.234Z,99.90
2023-02-09T10:12:33.757Z,99.90
2023-02-09T10:15:23.519Z,99.90
2023-02-09T10:17:55.239Z,99.90
2023-02-09T10:20:43.231Z,99.90
2023-02-09T10:23:17.991Z,99.90
2023-02-09T10:25:57.868Z,99.90
2023-02-09T10:28:30.901Z,99.90
2023-02-09T10:31:03.002Z,99.90
2023-02-09T10:33:38.890Z,99.90
2023-02-09T10:36:22.786Z,99.90
2023-02-09T10:39:09.966Z,99.90
2023-02-09T10:41:42.690Z,99.90
2023-02-09T10:44:19.670Z,99.90
2023-02-09T10:46:51.960Z,99.90
2023-02-09T10:49:27.681Z,99.90
2023-02-09T10:52:17.790Z,99.90
2023-02-09T10:54:51.788Z,99.90
2023-02-09T10:57:25.729Z,99.90
2023-02-09T10:59:58.214Z,99.90
2023-02-09T11:02:35.550Z,99.90
2023-02-09T11:05:26.130Z,99.90
2023-02-09T11:08:05.632Z,99.90
2023-02-09T11:10:40.429Z,99.90
2023-02-09T11:13:19.804Z,99.90
2023-02-09T11:16:05.421Z,99.90
2023-02-09T11:18:37.056Z,99.90
2023-02-09T11:21:09.986Z,99.90
2023-02-09T11:23:46.343Z,99.90
2023-02-09T11:26:25.231Z,99.90
2023-02-09T11:28:59.404Z,99.90
2023-02-09T11:31:45.173Z,99.90
2023-02-09T11:34:31.430Z,99.90
2023-02-09T11:37:06.827Z,99.90
2023-02-09T11:39:42.886Z,99.90
2023-02-09T11:42:18.023Z,99.90
2023-02-09T11:44:53.375Z,99.90
2023-02-09T11:47:28.115Z,99.90
2023-02-09T11:50:00.815Z,99.90
2023-02-09T11:52:35.778Z,99.90
2023-02-09T11:55:17.983Z,99.90
2023-02-09T11:57:54.466Z,99.90
2023-02-09T12:00:27.398Z,99.90
2023-02-09T12:03:00.456Z,99.90
2023-02-09T12:05:32.167Z,99.90
2023-02-09T12:08:14.112Z,99.90
2023-02-09T12:10:48.697Z,99.90
2023-02-09T12:13:30.192Z,99.90
2023-02-09T12:16:02.747Z,99.90
2023-02-09T12:18:34.471Z,99.90
2023-02-09T12:21:06.122Z,99.90
2023-02-09T12:23:38.223Z,99.90
2023-02-09T12:26:25.659Z,99.90
2023-02-09T12:28:59.838Z,99.90
2023-02-09T12:31:31.964Z,99.90
2023-02-09T12:34:20.888Z,99.90
2023-02-09T12:37:20.498Z,99.90
2023-02-09T12:40:20.860Z,99.90
2023-02-09T12:43:11.101Z,99.90
2023-02-09T12:45:44.727Z,99.90
2023-02-09T12:48:16.752Z,99.90
2023-02-09T12:50:51.483Z,99.90
2023-02-09T12:53:45.779Z,99.90
2023-02-09T12:56:33.351Z,99.90
2023-02-09T12:59:16.517Z,99.90
2023-02-09T13:02:13.448Z,99.90
2023-02-09T13:04:53.915Z,99.90
2023-02-09T13:07:42.929Z,99.90
2023-02-09T13:10:22.317Z,99.90
2023-02-09T13:12:56.688Z,99.90
2023-02-09T13:15:31.192Z,99.90
2023-02-09T13:18:08.913Z,98.30
2023-02-09T13:21:02.415Z,97.10
2023-02-09T13:23:34.824Z,94.00
2023-02-09T13:26:15.895Z,92.90
2023-02-09T13:28:47.559Z,96.90
2023-02-09T13:31:29.041Z,96.70
2023-02-09T13:34:05.003Z,92.20
2023-02-09T13:36:39.209Z,88.80
2023-02-09T13:39:14.467Z,99.90
2023-02-09T13:41:46.168Z,99.90
2023-02-09T13:44:22.039Z,99.90
2023-02-09T13:46:55.283Z,99.90
2023-02-09T13:49:28.906Z,99.90
2023-02-09T13:52:14.237Z,99.90
2023-02-09T13:54:45.982Z,79.90
2023-02-09T13:57:28.337Z,74.80
2023-02-09T14:00:06.487Z,64.60
2023-02-09T14:02:45.523Z,73.10
2023-02-09T14:05:24.990Z,69.20
2023-02-09T14:07:56.671Z,72.70
2023-02-09T14:10:28.352Z,67.50
2023-02-09T14:13:01.184Z,66.70
2023-02-09T14:15:35.152Z,63.20
2023-02-09T14:21:19.089Z,55.10
2023-02-09T14:24:13.895Z,67.80
2023-02-09T14:26:47.982Z,69.10
2023-02-09T14:29:22.895Z,70.60
2023-02-09T14:31:55.458Z,63.80
2023-02-09T14:34:32.006Z,66.20
2023-02-09T14:37:27.438Z,63.50
2023-02-09T14:39:59.822Z,61.70
2023-02-09T14:42:32.037Z,64.40
2023-02-09T14:45:27.307Z,64.50
2023-02-09T14:47:58.967Z,64.00
2023-02-09T14:50:30.639Z,63.50
2023-02-09T14:53:05.417Z,66.80
2023-02-09T14:55:37.113Z,99.90
2023-02-09T14:58:16.677Z,99.90
2023-02-09T15:00:48.526Z,99.90
2023-02-09T15:03:20.452Z,99.90
2023-02-09T15:05:54.619Z,99.90
2023-02-09T15:08:28.464Z,99.90
2023-02-09T15:11:00.964Z,99.90
2023-02-09T15:13:32.685Z,99.90
2023-02-09T15:16:05.009Z,99.90
2023-02-09T15:18:37.524Z,99.90
2023-02-09T15:21:09.995Z,99.90
2023-02-09T15:23:43.026Z,99.90
2023-02-09T15:26:15.216Z,99.90
2023-02-09T15:28:46.880Z,99.90
2023-02-09T15:31:18.629Z,99.90
2023-02-09T15:33:50.326Z,99.90
2023-02-09T15:36:28.885Z,99.90
2023-02-09T15:39:02.066Z,99.90
2023-02-09T15:41:35.957Z,1.00
2023-02-09T15:44:12.099Z,99.90
2023-02-09T15:46:43.830Z,99.90
2023-02-09T15:49:15.570Z,99.90
2023-02-09T15:51:47.248Z,99.90
2023-02-09T15:54:20.941Z,99.90
2023-02-09T15:56:52.610Z,99.90
2023-02-09T15:59:24.524Z,99.90
2023-02-09T16:01:58.913Z,99.90
2023-02-09T16:04:31.601Z,99.90
2023-02-09T16:07:03.277Z,99.90
2023-02-09T16:09:36.279Z,1.00
2023-02-09T16:12:09.503Z,1.00
2023-02-09T16:14:41.158Z,1.00
2023-02-09T16:17:12.823Z,1.00
2023-02-09T16:22:16.477Z,93.30
2023-02-09T16:24:49.485Z,99.90
2023-02-09T16:27:23.793Z,99.90
2023-02-09T16:29:55.474Z,99.90
2023-02-09T16:32:27.402Z,99.90
2023-02-09T16:35:11.105Z,99.90
2023-02-09T16:37:49.184Z,99.90
2023-02-09T16:40:25.939Z,99.90
2023-02-09T16:42:58.709Z,99.90
2023-02-09T16:45:30.821Z,99.90
2023-02-09T16:48:02.517Z,99.90
2023-02-09T16:50:35.102Z,99.90
2023-02-09T16:53:16.256Z,99.90
2023-02-09T16:55:49.864Z,99.90
2023-02-09T16:58:21.801Z,99.90
2023-02-09T17:00:53.527Z,99.90
2023-02-09T17:03:30.240Z,99.90
2023-02-09T17:06:02.199Z,99.90
2023-02-09T17:08:34.268Z,99.90
2023-02-09T17:11:07.266Z,99.90
2023-02-09T17:13:38.923Z,99.90
2023-02-09T17:16:15.692Z,99.90
2023-02-09T17:18:48.203Z,99.90
2023-02-09T17:21:20.942Z,99.90
2023-02-09T17:23:52.682Z,99.90
2023-02-09T17:26:25.975Z,99.90
2023-02-09T17:28:57.656Z,99.90
2023-02-09T17:31:38.248Z,99.90
2023-02-09T17:34:15.866Z,99.90
2023-02-09T17:36:47.547Z,99.90
2023-02-09T17:39:19.177Z,99.90
2023-02-09T17:41:52.176Z,99.90
2023-02-09T17:44:39.540Z,99.90
2023-02-09T17:47:16.735Z,99.90
2023-02-09T17:49:48.448Z,99.90
2023-02-09T17:52:20.346Z,99.90
2023-02-09T17:54:52.018Z,99.90
2023-02-09T17:57:25.270Z,99.90
2023-02-09T17:59:56.936Z,99.90
2023-02-09T18:02:28.640Z,99.90
2023-02-09T18:05:00.300Z,99.90
2023-02-09T18:07:31.952Z,99.90
2023-02-09T18:10:04.022Z,99.90
2023-02-09T18:12:37.078Z,99.90
2023-02-09T18:15:16.072Z,99.90
2023-02-09T18:17:48.011Z,99.90
2023-02-09T18:20:20.608Z,99.90
2023-02-09T18:22:52.352Z,99.90
2023-02-09T18:25:24.819Z,99.90
2023-02-09T18:27:58.068Z,99.90
2023-02-09T18:30:31.623Z,99.90
2023-02-09T18:33:03.598Z,99.90
2023-02-09T18:35:36.467Z,99.90
2023-02-09T18:38:08.973Z,99.90
2023-02-09T18:40:40.607Z,99.90
2023-02-09T18:43:13.708Z,99.90
2023-02-09T18:45:45.886Z,99.90
2023-02-09T18:48:17.660Z,99.90
2023-02-09T18:50:49.337Z,99.90
2023-02-09T18:53:20.990Z,1.00
2023-02-09T18:55:52.789Z,1.00
2023-02-09T18:58:25.784Z,1.00
2023-02-09T19:00:57.415Z,1.00
2023-02-09T19:03:29.061Z,1.00
2023-02-09T19:06:00.710Z,1.00
2023-02-09T19:08:32.359Z,1.00
2023-02-09T19:11:04.251Z,1.00
2023-02-09T19:13:37.279Z,1.00
2023-02-09T19:16:10.593Z,1.00
2023-02-09T19:18:42.307Z,1.00
2023-02-09T19:21:13.935Z,1.00
2023-02-09T19:23:45.616Z,1.00
2023-02-09T19:26:17.266Z,1.00
2023-02-09T19:28:50.276Z,1.00
2023-02-09T19:31:21.971Z,1.00
2023-02-09T19:33:54.892Z,1.00
2023-02-09T19:36:26.543Z,1.00
2023-02-09T19:38:58.178Z,1.00
2023-02-09T19:41:29.933Z,1.00
2023-02-09T19:44:02.948Z,1.00
2023-02-09T19:46:34.667Z,1.00
2023-02-09T19:49:06.438Z,1.00
2023-02-09T19:51:38.139Z,1.00
2023-02-09T19:54:09.784Z,1.00
2023-02-09T19:56:41.507Z,1.00
2023-02-09T19:59:14.506Z,1.00
2023-02-09T20:01:46.221Z,1.00
2023-02-09T20:04:17.866Z,1.00
2023-02-09T20:06:49.524Z,1.00
2023-02-09T20:09:21.171Z,1.00
2023-02-09T20:11:52.848Z,1.00
2023-02-09T20:14:26.795Z,1.00
2023-02-09T20:17:00.165Z,99.90
2023-02-09T20:19:34.676Z,99.90
2023-02-09T20:22:06.365Z,1.00
2023-02-09T20:24:38.099Z,1.00
2023-02-09T20:27:09.786Z,1.00
2023-02-09T20:29:42.775Z,1.00
2023-02-09T20:32:14.459Z,1.00
2023-02-09T20:34:46.143Z,1.00
2023-02-09T20:37:17.807Z,1.00
2023-02-09T20:39:49.444Z,1.00
2023-02-09T20:42:21.313Z,1.00
2023-02-09T20:44:54.307Z,1.00
2023-02-09T20:47:25.972Z,1.00
2023-02-09T20:49:57.902Z,1.00
2023-02-09T20:52:29.728Z,1.00
2023-02-09T20:55:01.388Z,1.00
2023-02-09T20:57:33.412Z,1.00
2023-02-09T21:00:07.412Z,1.00
2023-02-09T21:02:39.158Z,1.00
2023-02-09T21:05:10.837Z,1.00
2023-02-09T21:07:42.613Z,99.90
2023-02-09T21:10:14.271Z,99.90
2023-02-09T21:12:46.216Z,1.00
2023-02-09T21:15:19.299Z,1.00
2023-02-09T21:17:50.950Z,1.00
2023-02-09T21:20:22.601Z,99.90
2023-02-09T21:22:54.268Z,1.00
2023-02-09T21:25:25.934Z,99.90
2023-02-09T21:27:57.674Z,1.00
2023-02-09T21:30:31.102Z,1.00
2023-02-09T21:33:02.862Z,34.20
2023-02-09T21:35:34.577Z,99.90
2023-02-09T21:38:06.310Z,99.90
2023-02-09T21:40:38.001Z,99.90
2023-02-09T21:43:09.792Z,99.90
2023-02-09T21:45:43.144Z,99.90
2023-02-09T21:48:14.986Z,99.90
2023-02-09T21:50:46.681Z,99.90
2023-02-09T21:53:18.447Z,99.90
2023-02-09T21:55:50.207Z,99.90
2023-02-09T21:58:21.900Z,99.90
2023-02-09T22:00:57.970Z,99.90
2023-02-09T22:03:30.838Z,99.90
2023-02-09T22:06:02.568Z,99.90
2023-02-09T22:08:34.343Z,99.90
2023-02-09T22:11:06.176Z,99.90
2023-02-09T22:13:37.900Z,99.90
2023-02-09T22:16:13.083Z,99.90
2023-02-09T22:18:44.851Z,99.90
2023-02-09T22:21:16.638Z,99.90
2023-02-09T22:23:48.436Z,99.90
2023-02-09T22:26:20.062Z,99.90
2023-02-09T22:28:51.728Z,99.90
2023-02-09T22:31:24.717Z,99.90
2023-02-09T22:33:56.366Z,99.90
2023-02-09T22:36:28.053Z,99.90
2023-02-09T22:39:00.273Z,99.90
2023-02-09T22:41:31.952Z,99.90
2023-02-09T22:44:05.390Z,99.90
2023-02-09T22:46:39.559Z,99.90
2023-02-09T22:49:14.243Z,99.90
2023-02-09T22:51:46.082Z,99.90
2023-02-09T22:54:18.847Z,99.90
2023-02-09T22:56:50.493Z,99.90
2023-02-09T22:59:22.145Z,99.90
